This is the latest recevied weather packets stored in our database for station/object OM5AST-13. If no packets are shown the sender has not sent any weather packets the latest 10 day(s).
| Time | Temp. | Humidity | Pressure | Rain* | Wind** | Luminosity | Snow |
|---|---|---|---|---|---|---|---|
| 1778085835 | 24.44° C | 42% | - | 0 mm | - | 0 W/m² | - |
| 1778084635 | 26.11° C | 37% | - | 0 mm | - | 0 W/m² | - |
| 1778083435 | 26.11° C | 37% | - | 0 mm | - | 0 W/m² | - |
| 1778082235 | 26.11° C | 39% | - | 0 mm | - | 0 W/m² | - |
| 1778081035 | 25.56° C | 38% | - | 0 mm | - | 0 W/m² | - |
| 1778079835 | 25.56° C | 38% | - | 0 mm | - | 0 W/m² | - |
| 1778078635 | 25° C | 40% | - | 0 mm | - | 0 W/m² | - |
| 1778077436 | 25° C | 40% | - | 0 mm | - | 0 W/m² | - |
| 1778076236 | 25° C | 39% | - | 0 mm | - | 0 W/m² | - |
| 1778075035 | 25.56° C | 39% | - | 0 mm | - | 0 W/m² | - |
| 1778073835 | 26.11° C | 37% | - | 0 mm | - | 0 W/m² | - |
| 1778072635 | 26.67° C | 36% | - | 0 mm | - | 0 W/m² | - |
| 1778071435 | 26.67° C | 36% | - | 0 mm | - | 0 W/m² | - |
| 1778070235 | 25.56° C | 38% | - | 0 mm | - | 0 W/m² | - |
| 1778069036 | 25° C | 41% | - | 0 mm | - | 0 W/m² | - |
| 1778067835 | 25° C | 43% | - | 0 mm | - | 0 W/m² | - |
| 1778066636 | 23.89° C | 45% | - | 0 mm | - | 0 W/m² | - |
| 1778065435 | 23.89° C | 48% | - | 0 mm | - | 0 W/m² | - |
| 1778064235 | 23.33° C | 49% | - | 0 mm | - | 0 W/m² | - |
| 1778063035 | 22.78° C | 49% | - | 0 mm | - | 0 W/m² | - |
| 1778061837 | 22.78° C | 51% | - | 0 mm | - | 0 W/m² | - |
| 1778060635 | 22.78° C | 51% | - | 0 mm | - | 0 W/m² | - |
| 1778059436 | 22.22° C | 53% | - | 0 mm | - | 0 W/m² | - |
| 1778058235 | 22.22° C | 52% | - | 0 mm | - | 0 W/m² | - |
| 1778057035 | 21.67° C | 54% | - | 0 mm | - | 0 W/m² | - |
* Rain latest hour (hover to see other rain measurements)
** Current wind speed in m/s (hover to see current wind gust speed)